Coventry, United Kingdom

12:07 PM BST on August 25, 2016 (GMT +0100)
Coventry | | Change Station

Elev 269 ft 52.37 °N, 1.48 °W | Updated 17 minutes ago

Mostly Cloudy
Mostly Cloudy
66 °F
Feels Like 66 °F
N
6
Wind Variable Wind from NNE

Today
High -- | Low -- °F
--% Chance of Precip.
Yesterday
High -- | Low -- °F
Precip. -- in
Pressure 30.01 in
Visibility 3.7 miles
Clouds Mostly Cloudy 600 ft
Dew Point 64 °F
Humidity 94%
Rainfall 0.00 in
Snow Depth Not available.
6:06 AM 8:08 PM
Waning Gibbous, 47% visible
METAR EGBE 251050Z 02005KT 340V050 6000 BKN006 19/18 Q1016
Pressure 30.01 in
Visibility 3.7 miles
Clouds Mostly Cloudy 600 ft
Dew Point 64 °F
Humidity 94%
Rainfall 0.00 in
Snow Depth Not available.
6:06 AM 8:08 PM
Waning Gibbous, 47% visible
METAR EGBE 251050Z 02005KT 340V050 6000 BKN006 19/18 Q1016

10-Day Weather Forecast

×

Almanac

Astronomy

Aug. 25, 2016 Rise Set
Actual Time
Civil Twilight
Nautical Twilight
Astronomical Twilight
Moon
Length of Visible Light
Length of Day
Tomorrow will be .
, % of the Moon is Illuminated

Today's Extremes

Country Highs Country Lows

Community

WunderPhotos

Upload Photos

1,934,822 photos uploaded!

WunderBlog® & News

Nearby

Air Quality

  Air Quality AQ Index Pollutant
Not available.

Snow Depth

Station Depth Elevation

Earthquake Activity

City Distance Mag. Time & Date
Minimum magnitude displayed is 2.5.

Coastal Water Temperatures

Place Temperature

Stations

Nearby Weather Stations

Station Location Temp. Windchill Dew Point Humidity Wind Precip. Elev Updated Type